createdAt,value
2023-03-08T00:00:14.615Z,12.00
2023-03-08T00:01:47.676Z,8.82
2023-03-08T00:03:20.920Z,10.02
2023-03-08T00:04:56.355Z,11.47
2023-03-08T00:06:29.654Z,7.13
2023-03-08T00:08:01.777Z,6.33
2023-03-08T00:09:35.128Z,9.25
2023-03-08T00:11:11.416Z,7.97
2023-03-08T00:12:44.508Z,8.77
2023-03-08T00:14:18.666Z,8.52
2023-03-08T00:15:53.106Z,9.07
2023-03-08T00:17:26.289Z,9.25
2023-03-08T00:18:59.365Z,7.75
2023-03-08T00:20:32.450Z,8.10
2023-03-08T00:22:05.710Z,7.33
2023-03-08T00:23:39.335Z,9.02
2023-03-08T00:25:11.531Z,9.13
2023-03-08T00:26:46.011Z,8.65
2023-03-08T00:28:19.100Z,9.07
2023-03-08T00:29:52.162Z,8.95
2023-03-08T00:31:25.335Z,8.95
2023-03-08T00:32:59.946Z,9.35
2023-03-08T00:34:33.002Z,8.20
2023-03-08T00:36:07.520Z,10.13
2023-03-08T00:37:42.399Z,8.68
2023-03-08T00:39:16.558Z,9.23
2023-03-08T00:40:49.735Z,9.82
2023-03-08T00:42:24.943Z,9.07
2023-03-08T00:43:58.201Z,8.87
2023-03-08T00:45:31.449Z,8.40
2023-03-08T00:47:04.978Z,9.40
2023-03-08T00:48:38.109Z,10.33
2023-03-08T00:50:11.100Z,9.73
2023-03-08T00:51:44.159Z,10.60
2023-03-08T00:53:17.272Z,12.33
2023-03-08T00:54:50.317Z,10.63
2023-03-08T00:56:23.485Z,13.00
2023-03-08T00:57:57.220Z,12.40
2023-03-08T00:59:30.349Z,13.13
2023-03-08T01:01:05.192Z,11.45
2023-03-08T01:02:41.200Z,12.10
2023-03-08T01:04:14.398Z,16.80
2023-03-08T01:05:48.422Z,13.10
2023-03-08T01:07:23.493Z,15.45
2023-03-08T01:08:56.689Z,13.67
2023-03-08T01:10:30.161Z,14.52
2023-03-08T01:12:03.236Z,15.23
2023-03-08T01:13:37.666Z,14.82
2023-03-08T01:15:13.958Z,14.73
2023-03-08T01:16:47.060Z,14.37
2023-03-08T01:18:20.331Z,13.25
2023-03-08T01:19:53.414Z,12.40
2023-03-08T01:21:27.192Z,14.80
2023-03-08T01:23:00.308Z,9.80
2023-03-08T01:24:33.622Z,10.20
2023-03-08T01:26:09.404Z,7.55
2023-03-08T01:27:42.480Z,10.55
2023-03-08T01:29:16.962Z,8.75
2023-03-08T01:30:49.058Z,8.97
2023-03-08T01:32:22.182Z,7.50
2023-03-08T01:33:56.309Z,7.32
2023-03-08T01:35:29.388Z,7.82
2023-03-08T01:37:02.552Z,9.00
2023-03-08T01:38:34.861Z,8.52
2023-03-08T01:40:09.891Z,8.50
2023-03-08T01:41:42.928Z,7.50
2023-03-08T01:43:24.525Z,9.23
2023-03-08T01:45:01.932Z,7.50
2023-03-08T01:46:37.279Z,8.70
2023-03-08T01:48:32.435Z,10.77
2023-03-08T01:50:12.970Z,10.60
2023-03-08T01:51:52.135Z,10.33
2023-03-08T01:53:25.344Z,10.32
2023-03-08T01:55:00.818Z,9.93
2023-03-08T01:56:34.270Z,11.98
2023-03-08T01:58:06.515Z,12.60
2023-03-08T01:59:40.946Z,11.63
2023-03-08T02:01:14.989Z,10.52
2023-03-08T02:02:51.681Z,10.18
2023-03-08T02:04:25.046Z,12.27
2023-03-08T02:05:57.954Z,11.03
2023-03-08T02:07:31.139Z,10.07
2023-03-08T02:09:05.525Z,10.63
2023-03-08T02:10:38.432Z,10.57
2023-03-08T02:12:13.824Z,9.23
2023-03-08T02:13:47.637Z,9.77
2023-03-08T02:15:22.419Z,9.07
2023-03-08T02:17:00.532Z,12.00
2023-03-08T02:18:33.637Z,9.57
2023-03-08T02:20:12.793Z,11.77
2023-03-08T02:21:45.844Z,8.73
2023-03-08T02:23:21.792Z,8.87
2023-03-08T02:24:54.863Z,10.23
2023-03-08T02:26:27.960Z,10.03
2023-03-08T02:28:01.566Z,8.50
2023-03-08T02:29:35.975Z,10.60
2023-03-08T02:31:09.122Z,10.43
2023-03-08T02:32:42.724Z,10.00
2023-03-08T02:34:15.859Z,8.68
2023-03-08T02:35:48.997Z,10.20
2023-03-08T02:37:22.070Z,10.15
2023-03-08T02:38:56.565Z,9.13
2023-03-08T02:40:29.683Z,9.20
2023-03-08T02:42:02.759Z,9.63
2023-03-08T02:43:34.881Z,8.95
2023-03-08T02:45:09.251Z,9.05
2023-03-08T02:46:42.530Z,7.50
2023-03-08T02:48:16.354Z,7.70
2023-03-08T02:49:49.663Z,8.03
2023-03-08T02:51:22.732Z,8.18
2023-03-08T02:52:56.604Z,8.30
2023-03-08T02:54:33.202Z,6.87
2023-03-08T02:56:08.176Z,8.45
2023-03-08T02:57:40.259Z,7.20
2023-03-08T02:59:15.034Z,11.30
2023-03-08T03:00:50.278Z,8.52
2023-03-08T03:02:22.699Z,8.30
2023-03-08T03:03:56.615Z,10.57
2023-03-08T03:05:28.805Z,9.35
2023-03-08T03:07:11.096Z,9.93
2023-03-08T03:08:44.925Z,9.98
2023-03-08T03:10:19.636Z,11.15
2023-03-08T03:11:52.013Z,11.88
2023-03-08T03:13:25.149Z,12.32
2023-03-08T03:14:58.841Z,12.48
2023-03-08T03:16:31.988Z,12.50
2023-03-08T03:18:05.838Z,14.25
2023-03-08T03:19:39.433Z,13.52
2023-03-08T03:21:14.210Z,13.23
2023-03-08T03:22:47.212Z,12.73
2023-03-08T03:24:21.044Z,13.00
2023-03-08T03:26:05.787Z,13.45
2023-03-08T03:27:39.224Z,11.73
2023-03-08T03:29:12.387Z,12.55
2023-03-08T03:30:48.637Z,10.82
2023-03-08T03:32:22.151Z,11.65
2023-03-08T03:33:55.488Z,10.95
2023-03-08T03:35:30.874Z,11.10
2023-03-08T03:37:03.433Z,15.95
2023-03-08T03:38:37.125Z,13.00
2023-03-08T03:40:14.100Z,11.67
2023-03-08T03:41:50.857Z,13.70
2023-03-08T03:43:24.090Z,14.15
2023-03-08T03:44:57.165Z,13.02
2023-03-08T03:46:29.684Z,11.93
2023-03-08T03:48:04.337Z,12.07
2023-03-08T03:49:37.571Z,12.23
2023-03-08T03:51:12.963Z,12.35
2023-03-08T03:52:47.633Z,10.50
2023-03-08T03:54:20.720Z,13.07
2023-03-08T03:55:54.896Z,14.32
2023-03-08T03:57:29.783Z,13.90
2023-03-08T03:59:03.707Z,11.82
2023-03-08T04:00:36.768Z,10.17
2023-03-08T04:02:20.035Z,11.52
2023-03-08T04:03:59.253Z,12.35
2023-03-08T04:05:33.149Z,14.00
2023-03-08T04:07:06.534Z,14.85
2023-03-08T04:08:45.930Z,17.55
2023-03-08T04:10:24.494Z,13.52
2023-03-08T04:12:02.498Z,13.40
2023-03-08T04:13:37.602Z,16.05
2023-03-08T04:15:11.233Z,12.70
2023-03-08T04:16:44.357Z,15.10
2023-03-08T04:18:29.146Z,14.57
2023-03-08T04:20:02.464Z,14.90
2023-03-08T04:21:38.389Z,14.27
2023-03-08T04:23:12.055Z,13.03
2023-03-08T04:24:48.190Z,15.43
2023-03-08T04:26:26.010Z,16.80
2023-03-08T04:27:59.070Z,14.60
2023-03-08T04:29:33.915Z,15.17
2023-03-08T04:31:18.231Z,16.67
2023-03-08T04:32:51.344Z,16.52
2023-03-08T04:34:25.176Z,14.63
2023-03-08T04:35:57.945Z,17.13
2023-03-08T04:37:31.895Z,16.48
2023-03-08T04:39:11.888Z,14.77
2023-03-08T04:41:10.342Z,15.67
2023-03-08T04:43:09.511Z,14.27
2023-03-08T04:44:47.190Z,16.92
2023-03-08T04:46:25.940Z,14.07
2023-03-08T04:47:59.114Z,14.37
2023-03-08T04:49:32.339Z,13.47
2023-03-08T04:51:09.590Z,13.30
2023-03-08T04:52:42.791Z,14.07
2023-03-08T04:54:17.449Z,12.95
2023-03-08T04:55:56.243Z,12.10
2023-03-08T04:57:29.713Z,12.33
2023-03-08T04:59:05.710Z,12.80
2023-03-08T05:00:40.242Z,13.88
2023-03-08T05:02:13.533Z,15.23
2023-03-08T05:03:49.558Z,13.65
2023-03-08T05:05:24.027Z,13.52
2023-03-08T05:06:59.031Z,14.27
2023-03-08T05:08:34.186Z,14.63
2023-03-08T05:10:07.767Z,13.40
2023-03-08T05:11:40.826Z,16.80
2023-03-08T05:13:14.536Z,13.57
2023-03-08T05:14:48.238Z,14.53
2023-03-08T05:16:23.251Z,15.07
2023-03-08T05:17:57.114Z,17.35
2023-03-08T05:19:30.524Z,16.98
2023-03-08T05:21:05.386Z,16.77
2023-03-08T05:22:56.653Z,14.33
2023-03-08T05:24:32.812Z,16.70
2023-03-08T05:26:13.975Z,18.85
2023-03-08T05:27:47.069Z,16.70
2023-03-08T05:29:20.333Z,14.67
2023-03-08T05:31:01.361Z,17.87
2023-03-08T05:32:35.885Z,13.33
2023-03-08T05:34:11.864Z,13.07
2023-03-08T05:35:54.614Z,17.43
2023-03-08T05:37:29.222Z,17.47
2023-03-08T05:39:07.777Z,15.82
2023-03-08T05:40:53.435Z,16.93
2023-03-08T05:42:27.458Z,19.17
2023-03-08T05:44:02.340Z,16.37
2023-03-08T05:45:38.158Z,15.97
2023-03-08T05:47:11.778Z,16.93
2023-03-08T05:48:46.219Z,18.00
2023-03-08T05:50:21.497Z,15.57
2023-03-08T05:51:57.557Z,17.73
2023-03-08T05:53:31.996Z,16.93
2023-03-08T05:55:05.976Z,16.63
2023-03-08T05:56:39.081Z,17.60
2023-03-08T05:58:18.069Z,15.07
2023-03-08T05:59:51.251Z,18.50
2023-03-08T06:01:29.175Z,19.60
2023-03-08T06:03:10.407Z,19.25
2023-03-08T06:04:47.164Z,16.60
2023-03-08T06:06:24.426Z,15.55
2023-03-08T06:07:57.834Z,18.80
2023-03-08T06:09:30.048Z,17.17
2023-03-08T06:11:03.517Z,17.60
2023-03-08T06:12:36.624Z,16.97
2023-03-08T06:14:13.395Z,18.05
2023-03-08T06:15:47.310Z,15.23
2023-03-08T06:17:20.589Z,17.60
2023-03-08T06:18:56.105Z,18.03
2023-03-08T06:20:30.905Z,19.80
2023-03-08T06:22:04.008Z,22.20
2023-03-08T06:23:38.204Z,20.97
2023-03-08T06:25:11.814Z,22.90
2023-03-08T06:26:46.138Z,25.70
2023-03-08T06:28:22.559Z,23.63
2023-03-08T06:29:55.750Z,21.53
2023-03-08T06:31:29.641Z,18.90
2023-03-08T06:33:03.657Z,20.23
2023-03-08T06:34:36.899Z,21.60
2023-03-08T06:36:14.300Z,23.07
2023-03-08T06:37:49.970Z,24.17
2023-03-08T06:39:23.060Z,20.30
2023-03-08T06:40:56.468Z,20.37
2023-03-08T06:42:40.550Z,19.97
2023-03-08T06:44:14.738Z,20.67
2023-03-08T06:45:47.876Z,18.00
2023-03-08T06:47:21.352Z,18.00
2023-03-08T06:48:55.969Z,15.77
2023-03-08T06:50:29.294Z,19.40
2023-03-08T06:52:03.812Z,17.10
2023-03-08T06:53:38.388Z,18.63
2023-03-08T06:55:12.808Z,19.10
2023-03-08T06:56:46.991Z,17.47
2023-03-08T06:58:20.167Z,18.20
2023-03-08T06:59:53.300Z,17.47
2023-03-08T07:01:26.385Z,16.93
2023-03-08T07:03:00.183Z,19.47
2023-03-08T07:04:33.292Z,18.73
2023-03-08T07:06:08.559Z,18.83
2023-03-08T07:07:43.038Z,20.27
2023-03-08T07:09:16.337Z,19.50
2023-03-08T07:10:49.404Z,17.67
2023-03-08T07:12:22.673Z,14.93
2023-03-08T07:13:55.781Z,17.77
2023-03-08T07:15:28.963Z,16.20
2023-03-08T07:17:02.077Z,16.50
2023-03-08T07:18:35.480Z,15.63
2023-03-08T07:20:10.456Z,15.07
2023-03-08T07:21:44.689Z,17.57
2023-03-08T07:23:19.127Z,16.33
2023-03-08T07:24:52.236Z,16.47
2023-03-08T07:26:25.283Z,17.33
2023-03-08T07:28:00.137Z,15.57
2023-03-08T07:29:33.215Z,17.00
2023-03-08T07:31:06.669Z,15.73
2023-03-08T07:32:40.976Z,17.80
2023-03-08T07:34:14.264Z,19.00
2023-03-08T07:35:47.756Z,17.13
2023-03-08T07:37:20.861Z,16.63
2023-03-08T07:38:55.307Z,19.80
2023-03-08T07:40:28.421Z,19.30
2023-03-08T07:42:01.489Z,17.27
2023-03-08T07:43:34.638Z,18.00
2023-03-08T07:45:15.927Z,19.37
2023-03-08T07:46:49.013Z,20.10
2023-03-08T07:48:22.080Z,17.47
2023-03-08T07:49:55.130Z,17.63
2023-03-08T07:51:28.252Z,18.10
2023-03-08T07:53:01.712Z,18.43
2023-03-08T07:54:36.225Z,17.53
2023-03-08T07:56:09.705Z,18.07
2023-03-08T07:57:42.778Z,19.07
2023-03-08T07:59:15.852Z,19.27
2023-03-08T08:00:48.994Z,20.97
2023-03-08T08:02:22.506Z,18.33
2023-03-08T08:03:55.616Z,20.40
2023-03-08T08:05:28.789Z,18.17
2023-03-08T08:07:04.164Z,18.67
2023-03-08T08:08:38.045Z,17.00
2023-03-08T08:10:12.974Z,17.57
2023-03-08T08:11:46.013Z,19.53
2023-03-08T08:13:19.147Z,19.60
2023-03-08T08:14:53.120Z,16.87
2023-03-08T08:16:26.840Z,15.90
2023-03-08T08:18:00.463Z,18.50
2023-03-08T08:19:33.614Z,17.27
2023-03-08T08:21:09.135Z,15.97
2023-03-08T08:22:42.153Z,16.90
2023-03-08T08:24:15.214Z,15.20
2023-03-08T08:25:50.298Z,16.43
2023-03-08T08:27:23.354Z,15.13
2023-03-08T08:28:57.181Z,14.13
2023-03-08T08:30:30.665Z,13.93
2023-03-08T08:32:05.156Z,15.87
2023-03-08T08:33:38.745Z,16.03
2023-03-08T08:35:12.111Z,16.83
2023-03-08T08:36:45.260Z,16.63
2023-03-08T08:38:18.347Z,16.47
2023-03-08T08:39:51.361Z,16.57
2023-03-08T08:41:27.945Z,15.57
2023-03-08T08:43:01.042Z,18.67
2023-03-08T08:44:34.104Z,16.13
2023-03-08T08:46:07.224Z,15.63
2023-03-08T08:47:40.343Z,18.03
2023-03-08T08:49:13.515Z,17.13
2023-03-08T08:50:46.623Z,16.13
2023-03-08T08:52:19.657Z,18.27
2023-03-08T08:53:53.150Z,16.87
2023-03-08T08:55:26.922Z,17.13
2023-03-08T08:57:01.418Z,15.63
2023-03-08T08:58:35.821Z,14.60
2023-03-08T09:00:10.614Z,14.63
2023-03-08T09:01:44.884Z,14.03
2023-03-08T09:03:18.158Z,15.73
2023-03-08T09:04:51.293Z,14.13
2023-03-08T09:06:26.613Z,13.30
2023-03-08T09:08:02.100Z,15.33
2023-03-08T09:09:35.513Z,17.17
2023-03-08T09:11:09.871Z,17.00
2023-03-08T09:12:44.306Z,16.90
2023-03-08T09:14:17.365Z,15.33
2023-03-08T09:15:50.422Z,16.43
2023-03-08T09:17:23.548Z,17.07
2023-03-08T09:18:57.911Z,16.57
2023-03-08T09:20:31.048Z,16.60
2023-03-08T09:22:04.215Z,17.00
2023-03-08T09:23:37.338Z,16.93
2023-03-08T09:25:11.649Z,17.20
2023-03-08T09:26:44.730Z,15.93
2023-03-08T09:28:19.191Z,16.00
2023-03-08T09:29:52.406Z,16.10
2023-03-08T09:31:26.074Z,15.83
2023-03-08T09:32:59.202Z,17.23
2023-03-08T09:34:32.318Z,15.33
2023-03-08T09:36:05.741Z,15.77
2023-03-08T09:37:39.076Z,14.00
2023-03-08T09:39:14.128Z,16.57
2023-03-08T09:41:01.064Z,14.97
2023-03-08T09:42:34.857Z,15.40
2023-03-08T09:44:19.257Z,14.57
2023-03-08T09:45:55.242Z,14.10
2023-03-08T09:47:34.422Z,14.30
2023-03-08T09:49:15.247Z,14.73
2023-03-08T09:50:51.118Z,11.73
2023-03-08T09:52:29.778Z,11.50
2023-03-08T09:54:07.470Z,10.37
2023-03-08T09:55:51.034Z,10.00
2023-03-08T09:57:27.960Z,10.70
2023-03-08T09:59:06.972Z,10.27
2023-03-08T10:00:41.765Z,13.23
2023-03-08T10:02:27.208Z,10.77
2023-03-08T10:04:16.706Z,11.37
2023-03-08T10:05:58.448Z,11.13
2023-03-08T10:07:43.471Z,11.40
2023-03-08T10:09:28.391Z,10.70
2023-03-08T10:11:04.191Z,10.33
2023-03-08T10:12:57.608Z,9.30
2023-03-08T10:14:33.798Z,9.60
2023-03-08T10:16:17.702Z,13.13
2023-03-08T10:17:56.590Z,9.97
2023-03-08T10:19:36.917Z,9.30
2023-03-08T10:21:13.894Z,9.33
2023-03-08T10:22:49.126Z,9.53
2023-03-08T10:24:27.514Z,9.20
2023-03-08T10:26:02.721Z,10.87
2023-03-08T10:27:36.851Z,8.43
2023-03-08T10:29:12.099Z,11.00
2023-03-08T10:30:48.087Z,10.10
2023-03-08T10:32:23.110Z,9.33
2023-03-08T10:34:04.002Z,10.37
2023-03-08T10:35:40.346Z,8.93
2023-03-08T10:37:13.606Z,11.87
2023-03-08T10:38:58.375Z,10.53
2023-03-08T10:40:31.620Z,10.23
2023-03-08T10:42:16.169Z,10.70
2023-03-08T10:43:51.595Z,10.53
2023-03-08T10:45:25.822Z,10.33
2023-03-08T10:46:58.960Z,10.70
2023-03-08T10:48:33.880Z,10.73
2023-03-08T10:50:18.867Z,9.90
2023-03-08T10:51:59.913Z,10.40
2023-03-08T10:53:34.062Z,10.47
2023-03-08T10:55:11.435Z,10.40
2023-03-08T10:56:46.581Z,12.03
2023-03-08T10:58:32.857Z,12.67
2023-03-08T11:00:18.800Z,10.93
2023-03-08T11:01:54.361Z,11.63
2023-03-08T11:03:28.014Z,13.90
2023-03-08T11:05:02.682Z,11.60
2023-03-08T11:06:36.756Z,12.27
2023-03-08T11:08:19.472Z,12.63
2023-03-08T11:09:52.626Z,13.57
2023-03-08T11:11:25.860Z,12.33
2023-03-08T11:13:03.364Z,12.30
2023-03-08T11:14:37.186Z,13.50
2023-03-08T11:16:22.621Z,15.80
2023-03-08T11:18:02.124Z,14.33
2023-03-08T11:19:47.161Z,15.47
2023-03-08T11:21:33.982Z,15.90
2023-03-08T11:23:17.751Z,17.23
2023-03-08T11:25:04.849Z,16.53
2023-03-08T11:26:47.177Z,16.47
2023-03-08T11:28:51.724Z,20.40
2023-03-08T11:30:36.689Z,22.17
2023-03-08T11:32:29.497Z,23.17
2023-03-08T11:34:34.580Z,25.07
2023-03-08T11:36:13.202Z,23.97
2023-03-08T11:37:54.435Z,26.47
2023-03-08T11:39:33.338Z,25.93
2023-03-08T11:41:20.018Z,26.57
2023-03-08T11:43:04.087Z,28.83
2023-03-08T11:45:01.169Z,28.03
2023-03-08T11:46:43.785Z,30.73
2023-03-08T11:48:43.568Z,27.90
2023-03-08T11:50:22.993Z,28.50
2023-03-08T11:52:04.218Z,27.30
2023-03-08T11:53:51.831Z,29.27
2023-03-08T11:55:36.712Z,29.57
2023-03-08T11:57:12.030Z,27.07
2023-03-08T11:58:49.710Z,28.90
2023-03-08T12:00:29.363Z,28.83
2023-03-08T12:02:12.174Z,29.97
2023-03-08T12:03:48.452Z,28.93
2023-03-08T12:05:29.373Z,26.97
2023-03-08T12:07:06.676Z,24.07
2023-03-08T12:08:46.543Z,24.13
2023-03-08T12:10:23.642Z,24.00
2023-03-08T12:12:04.489Z,27.17
2023-03-08T12:13:39.787Z,24.80
2023-03-08T12:15:25.736Z,26.73
2023-03-08T12:17:06.745Z,26.23
2023-03-08T12:18:47.650Z,25.00
2023-03-08T12:20:22.309Z,28.70
2023-03-08T12:22:03.606Z,21.43
2023-03-08T12:23:45.190Z,19.40
2023-03-08T12:25:26.218Z,22.20
2023-03-08T12:27:05.592Z,23.60
2023-03-08T12:28:44.928Z,21.27
2023-03-08T12:30:27.719Z,22.90
2023-03-08T12:32:02.055Z,20.73
2023-03-08T12:33:36.157Z,20.30
2023-03-08T12:35:27.676Z,22.77
2023-03-08T12:37:00.820Z,20.30
2023-03-08T12:38:37.407Z,18.33
2023-03-08T12:40:32.225Z,19.57
2023-03-08T12:42:16.467Z,19.43
2023-03-08T12:44:00.824Z,16.93
2023-03-08T12:45:34.339Z,18.77
2023-03-08T12:47:21.836Z,20.13
2023-03-08T12:48:55.591Z,17.17
2023-03-08T12:50:29.930Z,19.03
2023-03-08T12:52:06.278Z,17.57
2023-03-08T12:53:42.320Z,20.20
2023-03-08T12:55:20.999Z,20.17
2023-03-08T12:56:56.619Z,17.63
2023-03-08T12:58:31.014Z,18.33
2023-03-08T13:00:24.633Z,18.53
2023-03-08T13:02:03.704Z,14.43
2023-03-08T13:03:41.636Z,14.37
2023-03-08T13:05:21.824Z,16.13
2023-03-08T13:07:21.493Z,15.67
2023-03-08T13:08:58.689Z,13.27
2023-03-08T13:10:35.634Z,13.47
2023-03-08T13:12:26.618Z,13.63
2023-03-08T13:14:02.107Z,13.23
2023-03-08T13:15:35.334Z,14.67
2023-03-08T13:17:33.109Z,14.53
2023-03-08T13:19:19.455Z,14.53
2023-03-08T13:21:04.519Z,15.23
2023-03-08T13:22:48.651Z,13.17
2023-03-08T13:24:36.597Z,11.50
2023-03-08T13:26:50.625Z,11.30
2023-03-08T13:28:37.651Z,11.73
2023-03-08T13:30:23.760Z,12.80
2023-03-08T13:31:57.305Z,13.10
2023-03-08T13:33:33.954Z,10.87
2023-03-08T13:35:07.777Z,9.43
2023-03-08T13:36:40.828Z,10.13
2023-03-08T13:38:22.810Z,8.80
2023-03-08T13:39:57.406Z,10.03
2023-03-08T13:41:35.304Z,12.33
2023-03-08T13:43:09.677Z,11.37
2023-03-08T13:44:44.091Z,11.00
2023-03-08T13:46:18.003Z,11.00
2023-03-08T13:47:52.152Z,10.20
2023-03-08T13:49:27.762Z,10.87
2023-03-08T13:51:01.354Z,8.97
2023-03-08T13:52:39.123Z,9.60
2023-03-08T13:54:16.862Z,10.67
2023-03-08T13:55:51.958Z,7.47
2023-03-08T13:57:26.988Z,9.47
2023-03-08T13:59:01.068Z,8.60
2023-03-08T14:00:37.087Z,10.97
2023-03-08T14:02:21.440Z,8.97
2023-03-08T14:03:58.317Z,10.27
2023-03-08T14:05:34.102Z,9.87
2023-03-08T14:07:08.102Z,9.57
2023-03-08T14:08:41.186Z,10.03
2023-03-08T14:10:14.669Z,9.53
2023-03-08T14:11:54.848Z,10.67
2023-03-08T14:13:31.101Z,11.37
2023-03-08T14:15:06.640Z,11.67
2023-03-08T14:16:43.205Z,10.10
2023-03-08T14:18:23.037Z,10.60
2023-03-08T14:19:58.289Z,10.37
2023-03-08T14:21:31.890Z,10.10
2023-03-08T14:23:05.414Z,9.17
2023-03-08T14:24:39.076Z,9.50
2023-03-08T14:26:26.334Z,10.47
2023-03-08T14:28:00.510Z,9.27
2023-03-08T14:29:35.547Z,9.80
2023-03-08T14:31:32.898Z,9.00
2023-03-08T14:33:22.019Z,7.93
2023-03-08T14:35:07.668Z,7.83
2023-03-08T14:36:49.879Z,7.70
2023-03-08T14:38:26.107Z,10.60
2023-03-08T14:40:21.814Z,9.03
2023-03-08T14:41:56.249Z,9.47
2023-03-08T14:43:29.355Z,8.47
2023-03-08T14:45:05.445Z,8.47
2023-03-08T14:46:38.658Z,8.90
2023-03-08T14:48:25.753Z,8.40
2023-03-08T14:50:03.706Z,8.63
2023-03-08T14:51:41.422Z,8.63
2023-03-08T14:53:30.358Z,8.17
2023-03-08T14:55:04.012Z,8.80
2023-03-08T14:56:37.081Z,8.77
2023-03-08T14:58:13.920Z,8.77
2023-03-08T14:59:47.431Z,9.97
2023-03-08T15:01:26.107Z,11.23
2023-03-08T15:03:00.613Z,13.00
2023-03-08T15:04:35.058Z,11.43
2023-03-08T15:06:13.618Z,13.07
2023-03-08T15:07:47.844Z,14.80
2023-03-08T15:09:23.016Z,13.37
2023-03-08T15:10:56.151Z,12.73
2023-03-08T15:12:29.220Z,14.17
2023-03-08T15:14:02.801Z,14.90
2023-03-08T15:15:35.902Z,14.93
2023-03-08T15:17:09.207Z,14.37
2023-03-08T15:18:43.315Z,14.67
2023-03-08T15:20:19.264Z,14.33
2023-03-08T15:21:52.335Z,15.07
2023-03-08T15:23:27.957Z,13.57
2023-03-08T15:25:01.077Z,15.20
2023-03-08T15:26:34.193Z,16.10
2023-03-08T15:28:07.686Z,15.57
2023-03-08T15:29:40.907Z,14.00
2023-03-08T15:31:14.027Z,13.73
2023-03-08T15:32:47.612Z,13.50
2023-03-08T15:34:20.987Z,15.00
2023-03-08T15:35:55.601Z,14.97
2023-03-08T15:37:28.732Z,14.67
2023-03-08T15:39:04.495Z,15.17
2023-03-08T15:40:37.599Z,15.87
2023-03-08T15:42:10.663Z,14.33
2023-03-08T15:43:44.094Z,16.27
2023-03-08T15:45:17.419Z,16.57
2023-03-08T15:46:52.717Z,17.67
2023-03-08T15:48:26.158Z,16.43
2023-03-08T15:49:59.365Z,17.40
2023-03-08T15:51:35.265Z,15.83
2023-03-08T15:53:08.399Z,20.23
2023-03-08T15:54:45.014Z,15.73
2023-03-08T15:56:18.483Z,16.87
2023-03-08T15:57:51.659Z,17.67
2023-03-08T15:59:24.854Z,17.57
2023-03-08T16:00:57.924Z,18.60
2023-03-08T16:02:31.042Z,20.03
2023-03-08T16:04:04.295Z,20.90
2023-03-08T16:05:37.939Z,17.50
2023-03-08T16:07:12.699Z,18.50
2023-03-08T16:08:45.939Z,18.43
2023-03-08T16:10:19.087Z,17.77
2023-03-08T16:11:52.181Z,21.50
2023-03-08T16:13:25.348Z,19.03
2023-03-08T16:14:58.511Z,20.23
2023-03-08T16:16:44.373Z,22.80
2023-03-08T16:18:18.218Z,22.03
2023-03-08T16:19:51.261Z,18.53
2023-03-08T16:21:24.310Z,18.90
2023-03-08T16:22:58.709Z,17.10
2023-03-08T16:24:31.902Z,16.63
2023-03-08T16:26:15.236Z,19.63
2023-03-08T16:27:49.716Z,17.20
2023-03-08T16:29:22.906Z,17.73
2023-03-08T16:30:56.182Z,18.67
2023-03-08T16:32:29.709Z,18.53
2023-03-08T16:34:04.241Z,17.13
2023-03-08T16:35:37.338Z,18.13
2023-03-08T16:37:10.406Z,19.67
2023-03-08T16:38:44.881Z,19.30
2023-03-08T16:40:18.184Z,21.70
2023-03-08T16:41:51.456Z,21.40
2023-03-08T16:43:25.033Z,20.90
2023-03-08T16:44:59.038Z,23.43
2023-03-08T16:46:32.298Z,21.87
2023-03-08T16:48:06.674Z,22.53
2023-03-08T16:49:39.722Z,21.27
2023-03-08T16:51:14.572Z,22.83
2023-03-08T16:52:47.652Z,20.07
2023-03-08T16:54:22.125Z,20.17
2023-03-08T16:55:55.174Z,21.00
2023-03-08T16:57:28.669Z,20.27
2023-03-08T16:59:02.199Z,20.53
2023-03-08T17:00:35.438Z,22.00
2023-03-08T17:02:08.529Z,22.50
2023-03-08T17:03:41.701Z,22.60
2023-03-08T17:05:14.734Z,21.80
2023-03-08T17:06:47.846Z,21.00
2023-03-08T17:08:20.886Z,22.47
2023-03-08T17:09:55.403Z,23.60
2023-03-08T17:11:30.399Z,24.70
2023-03-08T17:13:03.476Z,22.80
2023-03-08T17:14:37.060Z,21.30
2023-03-08T17:16:12.727Z,24.37
2023-03-08T17:17:45.806Z,22.20
2023-03-08T17:19:18.858Z,21.63
2023-03-08T17:20:52.952Z,20.43
2023-03-08T17:22:26.088Z,21.30
2023-03-08T17:24:00.884Z,20.90
2023-03-08T17:25:36.283Z,21.73
2023-03-08T17:27:09.431Z,22.60
2023-03-08T17:28:42.698Z,22.17
2023-03-08T17:30:16.273Z,22.67
2023-03-08T17:31:49.679Z,25.23
2023-03-08T17:33:26.038Z,25.43
2023-03-08T17:34:59.179Z,23.30
2023-03-08T17:36:32.611Z,21.07
2023-03-08T17:38:05.723Z,21.30
2023-03-08T17:39:40.395Z,24.40
2023-03-08T17:41:16.679Z,22.70
2023-03-08T17:42:49.787Z,21.47
2023-03-08T17:44:22.881Z,24.17
2023-03-08T17:45:59.877Z,22.93
2023-03-08T17:47:33.195Z,24.70
2023-03-08T17:49:06.429Z,25.43
2023-03-08T17:50:39.538Z,24.40
2023-03-08T17:52:12.575Z,26.77
2023-03-08T17:53:46.574Z,24.03
2023-03-08T17:55:19.790Z,24.20
2023-03-08T17:56:54.186Z,24.93
2023-03-08T17:58:27.457Z,25.07
2023-03-08T18:00:00.482Z,23.77
2023-03-08T18:01:33.859Z,24.87
2023-03-08T18:03:06.952Z,25.63
2023-03-08T18:04:43.149Z,25.77
2023-03-08T18:06:28.944Z,24.10
2023-03-08T18:08:02.008Z,22.20
2023-03-08T18:09:35.146Z,23.17
2023-03-08T18:11:08.195Z,26.10
2023-03-08T18:12:42.706Z,24.27
2023-03-08T18:14:16.448Z,26.77
2023-03-08T18:15:50.755Z,24.77
2023-03-08T18:17:24.304Z,23.37
2023-03-08T18:18:57.420Z,24.73
2023-03-08T18:20:30.504Z,26.00
2023-03-08T18:22:04.554Z,25.07
2023-03-08T18:23:37.599Z,23.77
2023-03-08T18:25:11.288Z,24.37
2023-03-08T18:26:44.318Z,26.57
2023-03-08T18:28:19.359Z,23.17
2023-03-08T18:29:52.410Z,25.17
2023-03-08T18:31:27.134Z,25.30
2023-03-08T18:33:00.261Z,23.17
2023-03-08T18:34:33.338Z,23.67
2023-03-08T18:36:06.898Z,25.07
2023-03-08T18:37:40.029Z,22.23
2023-03-08T18:39:14.461Z,22.87
2023-03-08T18:40:47.579Z,23.33
2023-03-08T18:42:20.609Z,23.33
2023-03-08T18:43:55.709Z,25.17
2023-03-08T18:45:28.762Z,23.90
2023-03-08T18:47:02.124Z,25.63
2023-03-08T18:48:35.188Z,25.23
2023-03-08T18:50:09.515Z,23.97
2023-03-08T18:51:43.510Z,24.40
2023-03-08T18:53:17.230Z,25.00
2023-03-08T18:54:50.281Z,26.23
2023-03-08T18:56:25.706Z,26.53
2023-03-08T18:57:58.749Z,24.23
2023-03-08T18:59:34.671Z,26.93
2023-03-08T19:01:12.541Z,26.53
2023-03-08T19:02:45.709Z,27.03
2023-03-08T19:04:19.130Z,25.73
2023-03-08T19:05:52.519Z,27.70
2023-03-08T19:07:25.653Z,26.20
2023-03-08T19:08:58.858Z,25.33
2023-03-08T19:10:33.311Z,26.53
2023-03-08T19:12:07.477Z,25.47
2023-03-08T19:13:40.668Z,26.90
2023-03-08T19:15:15.131Z,25.53
2023-03-08T19:16:48.206Z,27.00
2023-03-08T19:18:23.518Z,24.83
2023-03-08T19:19:56.732Z,27.20
2023-03-08T19:21:32.004Z,25.97
2023-03-08T19:23:05.213Z,30.37
2023-03-08T19:24:38.535Z,30.20
2023-03-08T19:26:32.750Z,31.73
2023-03-08T19:28:05.800Z,31.03
2023-03-08T19:29:40.083Z,30.00
2023-03-08T19:31:18.662Z,32.80
2023-03-08T19:32:51.809Z,30.27
2023-03-08T19:34:27.784Z,30.57
2023-03-08T19:36:00.891Z,31.67
2023-03-08T19:37:33.969Z,33.23
2023-03-08T19:39:09.336Z,31.53
2023-03-08T19:40:45.075Z,32.03
2023-03-08T19:42:18.224Z,33.23
2023-03-08T19:43:51.251Z,32.00
2023-03-08T19:45:25.272Z,32.50
2023-03-08T19:47:01.280Z,30.50
2023-03-08T19:48:34.609Z,30.67
2023-03-08T19:50:08.717Z,32.00
2023-03-08T19:51:41.893Z,29.43
2023-03-08T19:53:15.193Z,29.33
2023-03-08T19:54:48.908Z,30.93
2023-03-08T19:56:23.730Z,29.90
2023-03-08T19:57:56.805Z,30.47
2023-03-08T19:59:30.912Z,31.17
2023-03-08T20:01:05.981Z,31.00
2023-03-08T20:02:45.644Z,30.30
2023-03-08T20:04:18.776Z,28.20
2023-03-08T20:05:51.903Z,30.17
2023-03-08T20:07:25.128Z,30.27
2023-03-08T20:08:58.445Z,30.43
2023-03-08T20:10:31.528Z,29.37
2023-03-08T20:12:04.857Z,32.50
2023-03-08T20:13:37.881Z,28.63
2023-03-08T20:15:11.587Z,30.80
2023-03-08T20:16:44.712Z,30.63
2023-03-08T20:18:19.346Z,29.73
2023-03-08T20:19:52.367Z,30.80
2023-03-08T20:21:27.777Z,32.70
2023-03-08T20:23:00.982Z,31.73
2023-03-08T20:24:34.035Z,31.03
2023-03-08T20:26:08.413Z,30.40
2023-03-08T20:27:43.530Z,30.03
2023-03-08T20:29:17.768Z,32.00
2023-03-08T20:30:51.308Z,30.23
2023-03-08T20:32:24.449Z,28.83
2023-03-08T20:33:59.365Z,29.80
2023-03-08T20:35:32.560Z,31.50
2023-03-08T20:37:05.627Z,28.73
2023-03-08T20:38:40.429Z,33.77
2023-03-08T20:40:16.622Z,32.93